This is the latest recevied weather packets stored in our database for station/object KC1TLF-15. If no packets are shown the sender has not sent any weather packets the latest 10 day(s).
| Time | Temp. | Humidity | Pressure | Rain* | Wind** | Luminosity | Snow |
|---|---|---|---|---|---|---|---|
| 1777931469 | 22.22° C | 33% | 1014.4 hPa | 0 mm | 0.45 m/s, 92° | - | - |
| 1777930870 | 22.22° C | 32% | 1014.4 hPa | 0 mm | 0.89 m/s, 315° | - | - |
| 1777930271 | 22.22° C | 32% | 1014.4 hPa | 0 mm | 0.45 m/s, 236° | - | - |
| 1777929670 | 21.67° C | 33% | 1014.5 hPa | 0 mm | 0.45 m/s, 308° | - | - |
| 1777929071 | 22.78° C | 31% | 1014.5 hPa | 0 mm | 1.34 m/s, 265° | - | - |
| 1777928471 | 22.22° C | 34% | 1014.3 hPa | 0 mm | 0.45 m/s, 316° | - | - |
| 1777927871 | 22.78° C | 32% | 1014.4 hPa | 0 mm | 0.45 m/s, 329° | 68 W/m² | - |
| 1777927271 | 22.78° C | 32% | 1014.3 hPa | 0 mm | 0.89 m/s, 318° | 109 W/m² | - |
| 1777926670 | 23.33° C | 32% | 1014.5 hPa | 0 mm | 0.89 m/s, 293° | 126 W/m² | - |
| 1777926070 | 22.78° C | 31% | 1014.4 hPa | 0 mm | 1.34 m/s, 318° | - | - |
| 1777925470 | 23.33° C | 31% | 1014.5 hPa | 0 mm | 0.89 m/s, 338° | 199 W/m² | - |
| 1777924870 | 22.22° C | 31% | 1014.4 hPa | 0 mm | 0.89 m/s, 175° | 167 W/m² | - |
| 1777924270 | 22.22° C | 31% | 1014.6 hPa | 0 mm | 1.34 m/s, 275° | 209 W/m² | - |
| 1777923668 | 22.78° C | 31% | 1014.7 hPa | 0 mm | 0.45 m/s, 279° | 132 W/m² | - |
| 1777923070 | 22.78° C | 29% | 1014.7 hPa | 0 mm | 0.45 m/s, 286° | 115 W/m² | - |
| 1777922469 | 22.22° C | 32% | 1014.5 hPa | 0 mm | 0.89 m/s, 331° | - | - |
| 1777921869 | 22.22° C | 32% | 1014.6 hPa | 0 mm | 1.34 m/s, 318° | - | - |
| 1777921270 | 22.22° C | 30% | 1014.8 hPa | 0 mm | 1.34 m/s, 293° | - | - |
| 1777920669 | 22.22° C | 31% | 1014.9 hPa | 0 mm | 1.34 m/s, 276° | - | - |
| 1777920069 | 21.67° C | 30% | 1015.2 hPa | 0 mm | 1.79 m/s, 292° | 258 W/m² | - |
| 1777919471 | 22.22° C | 29% | 1015 hPa | 0 mm | 0.89 m/s, 275° | 324 W/m² | - |
| 1777918871 | 22.22° C | 33% | 1015.3 hPa | 0 mm | 1.34 m/s, 314° | 209 W/m² | - |
| 1777918269 | 22.22° C | 30% | 1015.2 hPa | 0 mm | 0.45 m/s, 298° | 132 W/m² | - |
| 1777917670 | 21.67° C | 31% | 1015.1 hPa | 0 mm | 0.45 m/s, 287° | - | - |
| 1777917070 | 21.11° C | 32% | 1015.2 hPa | 0 mm | 1.34 m/s, 302° | 100 W/m² | - |
* Rain latest hour (hover to see other rain measurements)
** Current wind speed in m/s (hover to see current wind gust speed)